sensor_id;sensor_type;location;lat;lon;timestamp;P1;durP1;ratioP1;P2;durP2;ratioP2
75758;SDS011;64371;47.566;19.086;2023-02-04T00:01:56;9.55;;;1.50;;
75758;SDS011;64371;47.566;19.086;2023-02-04T00:05:00;3.43;;;1.00;;
75758;SDS011;64371;47.566;19.086;2023-02-04T00:08:05;5.63;;;1.20;;
75758;SDS011;64371;47.566;19.086;2023-02-04T00:11:12;5.07;;;1.15;;
75758;SDS011;64371;47.566;19.086;2023-02-04T00:14:21;6.13;;;1.00;;
75758;SDS011;64371;47.566;19.086;2023-02-04T00:17:31;6.30;;;1.15;;
75758;SDS011;64371;47.566;19.086;2023-02-04T00:20:37;5.43;;;1.07;;
75758;SDS011;64371;47.566;19.086;2023-02-04T00:23:40;6.50;;;1.10;;
75758;SDS011;64371;47.566;19.086;2023-02-04T00:26:53;10.55;;;1.48;;
75758;SDS011;64371;47.566;19.086;2023-02-04T00:30:09;5.18;;;1.20;;
75758;SDS011;64371;47.566;19.086;2023-02-04T00:33:25;7.13;;;1.58;;
75758;SDS011;64371;47.566;19.086;2023-02-04T00:36:32;7.60;;;1.40;;
75758;SDS011;64371;47.566;19.086;2023-02-04T00:39:53;6.23;;;1.30;;
75758;SDS011;64371;47.566;19.086;2023-02-04T00:43:07;7.63;;;1.60;;
75758;SDS011;64371;47.566;19.086;2023-02-04T00:46:14;6.85;;;1.35;;
75758;SDS011;64371;47.566;19.086;2023-02-04T00:49:20;7.20;;;1.60;;
75758;SDS011;64371;47.566;19.086;2023-02-04T00:52:30;4.00;;;1.10;;
75758;SDS011;64371;47.566;19.086;2023-02-04T00:55:32;7.40;;;1.70;;
75758;SDS011;64371;47.566;19.086;2023-02-04T00:58:39;6.82;;;1.58;;
75758;SDS011;64371;47.566;19.086;2023-02-04T01:01:53;6.22;;;1.38;;
75758;SDS011;64371;47.566;19.086;2023-02-04T01:05:00;4.80;;;1.70;;
75758;SDS011;64371;47.566;19.086;2023-02-04T01:08:15;6.43;;;1.37;;
75758;SDS011;64371;47.566;19.086;2023-02-04T01:11:25;5.93;;;1.50;;
75758;SDS011;64371;47.566;19.086;2023-02-04T01:14:35;5.60;;;1.70;;
75758;SDS011;64371;47.566;19.086;2023-02-04T01:17:42;4.78;;;1.52;;
75758;SDS011;64371;47.566;19.086;2023-02-04T01:20:44;9.30;;;1.58;;
75758;SDS011;64371;47.566;19.086;2023-02-04T01:23:50;5.37;;;1.53;;
75758;SDS011;64371;47.566;19.086;2023-02-04T01:26:55;4.07;;;1.30;;
75758;SDS011;64371;47.566;19.086;2023-02-04T01:30:03;6.78;;;1.20;;
75758;SDS011;64371;47.566;19.086;2023-02-04T01:33:10;7.47;;;1.48;;
75758;SDS011;64371;47.566;19.086;2023-02-04T01:36:21;10.52;;;1.77;;
75758;SDS011;64371;47.566;19.086;2023-02-04T01:39:26;7.13;;;1.30;;
75758;SDS011;64371;47.566;19.086;2023-02-04T01:42:35;7.33;;;1.50;;
75758;SDS011;64371;47.566;19.086;2023-02-04T01:45:38;6.47;;;1.50;;
75758;SDS011;64371;47.566;19.086;2023-02-04T01:48:52;5.55;;;1.40;;
75758;SDS011;64371;47.566;19.086;2023-02-04T01:51:55;5.57;;;1.23;;
75758;SDS011;64371;47.566;19.086;2023-02-04T01:54:59;5.70;;;1.20;;
75758;SDS011;64371;47.566;19.086;2023-02-04T01:58:01;5.80;;;1.90;;
75758;SDS011;64371;47.566;19.086;2023-02-04T02:01:32;5.18;;;1.40;;
75758;SDS011;64371;47.566;19.086;2023-02-04T02:04:38;6.18;;;1.40;;
75758;SDS011;64371;47.566;19.086;2023-02-04T02:07:48;4.72;;;1.27;;
75758;SDS011;64371;47.566;19.086;2023-02-04T02:10:58;5.20;;;1.40;;
75758;SDS011;64371;47.566;19.086;2023-02-04T02:14:04;5.80;;;1.37;;
75758;SDS011;64371;47.566;19.086;2023-02-04T02:17:06;7.35;;;1.42;;
75758;SDS011;64371;47.566;19.086;2023-02-04T02:20:19;10.52;;;1.67;;
75758;SDS011;64371;47.566;19.086;2023-02-04T02:23:48;5.78;;;1.40;;
75758;SDS011;64371;47.566;19.086;2023-02-04T02:27:00;6.70;;;1.13;;
75758;SDS011;64371;47.566;19.086;2023-02-04T02:30:10;5.77;;;1.00;;
75758;SDS011;64371;47.566;19.086;2023-02-04T02:33:21;4.30;;;1.05;;
75758;SDS011;64371;47.566;19.086;2023-02-04T02:36:32;5.53;;;1.35;;
75758;SDS011;64371;47.566;19.086;2023-02-04T02:39:46;2.97;;;0.70;;
75758;SDS011;64371;47.566;19.086;2023-02-04T02:42:55;6.23;;;0.90;;
75758;SDS011;64371;47.566;19.086;2023-02-04T02:46:03;5.50;;;1.00;;
75758;SDS011;64371;47.566;19.086;2023-02-04T02:49:12;5.40;;;0.88;;
75758;SDS011;64371;47.566;19.086;2023-02-04T02:52:24;3.33;;;0.80;;
75758;SDS011;64371;47.566;19.086;2023-02-04T02:55:39;6.50;;;1.00;;
75758;SDS011;64371;47.566;19.086;2023-02-04T02:58:51;2.70;;;0.83;;
75758;SDS011;64371;47.566;19.086;2023-02-04T03:01:57;3.77;;;1.00;;
75758;SDS011;64371;47.566;19.086;2023-02-04T03:05:06;5.07;;;1.35;;
75758;SDS011;64371;47.566;19.086;2023-02-04T03:08:13;5.18;;;1.13;;
75758;SDS011;64371;47.566;19.086;2023-02-04T03:11:20;4.05;;;1.20;;
75758;SDS011;64371;47.566;19.086;2023-02-04T03:14:26;4.33;;;0.77;;
75758;SDS011;64371;47.566;19.086;2023-02-04T03:17:38;5.53;;;0.80;;
75758;SDS011;64371;47.566;19.086;2023-02-04T03:20:40;6.30;;;0.90;;
75758;SDS011;64371;47.566;19.086;2023-02-04T03:23:52;3.45;;;0.77;;
75758;SDS011;64371;47.566;19.086;2023-02-04T03:27:06;6.65;;;0.90;;
75758;SDS011;64371;47.566;19.086;2023-02-04T03:30:25;5.27;;;0.80;;
75758;SDS011;64371;47.566;19.086;2023-02-04T03:33:37;4.93;;;0.87;;
75758;SDS011;64371;47.566;19.086;2023-02-04T03:36:45;4.38;;;0.90;;
75758;SDS011;64371;47.566;19.086;2023-02-04T03:39:50;5.55;;;1.23;;
75758;SDS011;64371;47.566;19.086;2023-02-04T03:43:03;4.65;;;0.88;;
75758;SDS011;64371;47.566;19.086;2023-02-04T03:46:08;5.47;;;0.97;;
75758;SDS011;64371;47.566;19.086;2023-02-04T03:49:16;4.97;;;0.50;;
75758;SDS011;64371;47.566;19.086;2023-02-04T03:52:18;3.95;;;1.02;;
75758;SDS011;64371;47.566;19.086;2023-02-04T03:55:30;4.43;;;0.70;;
75758;SDS011;64371;47.566;19.086;2023-02-04T03:58:37;3.95;;;0.70;;
75758;SDS011;64371;47.566;19.086;2023-02-04T04:01:45;5.87;;;0.60;;
75758;SDS011;64371;47.566;19.086;2023-02-04T04:04:52;7.30;;;0.90;;
75758;SDS011;64371;47.566;19.086;2023-02-04T04:08:04;6.68;;;0.80;;
75758;SDS011;64371;47.566;19.086;2023-02-04T04:11:07;6.15;;;0.70;;
75758;SDS011;64371;47.566;19.086;2023-02-04T04:14:15;5.72;;;0.88;;
75758;SDS011;64371;47.566;19.086;2023-02-04T04:17:17;4.30;;;0.73;;
75758;SDS011;64371;47.566;19.086;2023-02-04T04:20:24;5.03;;;0.50;;
75758;SDS011;64371;47.566;19.086;2023-02-04T04:23:28;4.47;;;0.60;;
75758;SDS011;64371;47.566;19.086;2023-02-04T04:26:32;6.22;;;1.85;;
75758;SDS011;64371;47.566;19.086;2023-02-04T04:29:37;5.72;;;1.10;;
75758;SDS011;64371;47.566;19.086;2023-02-04T04:32:46;4.67;;;0.87;;
75758;SDS011;64371;47.566;19.086;2023-02-04T04:35:48;4.20;;;1.10;;
75758;SDS011;64371;47.566;19.086;2023-02-04T04:39:13;6.47;;;0.70;;
75758;SDS011;64371;47.566;19.086;2023-02-04T04:42:18;4.50;;;0.70;;
75758;SDS011;64371;47.566;19.086;2023-02-04T04:45:23;7.90;;;0.65;;
75758;SDS011;64371;47.566;19.086;2023-02-04T04:48:30;5.27;;;0.53;;
75758;SDS011;64371;47.566;19.086;2023-02-04T04:51:37;5.73;;;0.43;;
75758;SDS011;64371;47.566;19.086;2023-02-04T04:54:39;4.50;;;0.60;;
75758;SDS011;64371;47.566;19.086;2023-02-04T04:57:44;4.85;;;0.60;;
75758;SDS011;64371;47.566;19.086;2023-02-04T05:00:47;4.70;;;0.73;;
75758;SDS011;64371;47.566;19.086;2023-02-04T05:03:55;5.97;;;0.80;;
75758;SDS011;64371;47.566;19.086;2023-02-04T05:07:03;4.20;;;0.40;;
75758;SDS011;64371;47.566;19.086;2023-02-04T05:10:16;5.13;;;0.40;;
75758;SDS011;64371;47.566;19.086;2023-02-04T05:13:20;3.92;;;0.70;;
75758;SDS011;64371;47.566;19.086;2023-02-04T05:16:25;3.55;;;0.95;;
75758;SDS011;64371;47.566;19.086;2023-02-04T05:19:31;4.33;;;0.60;;
75758;SDS011;64371;47.566;19.086;2023-02-04T05:22:43;2.53;;;0.63;;
75758;SDS011;64371;47.566;19.086;2023-02-04T05:25:48;4.47;;;0.70;;
75758;SDS011;64371;47.566;19.086;2023-02-04T05:29:01;5.22;;;0.47;;
75758;SDS011;64371;47.566;19.086;2023-02-04T05:32:10;1.80;;;0.32;;
75758;SDS011;64371;47.566;19.086;2023-02-04T05:35:15;4.47;;;1.00;;
75758;SDS011;64371;47.566;19.086;2023-02-04T05:38:26;3.47;;;0.87;;
75758;SDS011;64371;47.566;19.086;2023-02-04T05:41:29;3.28;;;0.50;;
75758;SDS011;64371;47.566;19.086;2023-02-04T05:44:43;2.30;;;0.40;;
75758;SDS011;64371;47.566;19.086;2023-02-04T05:48:08;4.63;;;0.50;;
75758;SDS011;64371;47.566;19.086;2023-02-04T05:51:12;3.13;;;0.50;;
75758;SDS011;64371;47.566;19.086;2023-02-04T05:54:16;3.10;;;0.30;;
75758;SDS011;64371;47.566;19.086;2023-02-04T05:57:25;1.60;;;0.30;;
75758;SDS011;64371;47.566;19.086;2023-02-04T06:00:31;1.27;;;0.40;;
75758;SDS011;64371;47.566;19.086;2023-02-04T06:03:38;3.00;;;0.20;;
75758;SDS011;64371;47.566;19.086;2023-02-04T06:06:56;1.47;;;0.23;;
75758;SDS011;64371;47.566;19.086;2023-02-04T06:10:01;0.70;;;0.27;;
75758;SDS011;64371;47.566;19.086;2023-02-04T06:13:07;2.28;;;0.20;;
75758;SDS011;64371;47.566;19.086;2023-02-04T06:16:21;0.77;;;0.10;;
75758;SDS011;64371;47.566;19.086;2023-02-04T06:19:29;0.73;;;0.10;;
75758;SDS011;64371;47.566;19.086;2023-02-04T06:22:39;1.07;;;0.30;;
75758;SDS011;64371;47.566;19.086;2023-02-04T06:25:50;0.77;;;0.10;;
75758;SDS011;64371;47.566;19.086;2023-02-04T06:28:59;0.95;;;0.10;;
75758;SDS011;64371;47.566;19.086;2023-02-04T06:32:04;0.47;;;0.10;;
75758;SDS011;64371;47.566;19.086;2023-02-04T06:35:30;0.40;;;0.10;;
75758;SDS011;64371;47.566;19.086;2023-02-04T06:38:42;0.27;;;0.00;;
75758;SDS011;64371;47.566;19.086;2023-02-04T06:42:00;0.30;;;0.10;;
75758;SDS011;64371;47.566;19.086;2023-02-04T06:45:06;0.50;;;0.00;;
75758;SDS011;64371;47.566;19.086;2023-02-04T06:48:10;0.80;;;0.08;;
75758;SDS011;64371;47.566;19.086;2023-02-04T06:51:18;0.60;;;0.30;;
75758;SDS011;64371;47.566;19.086;2023-02-04T06:54:23;0.80;;;0.40;;
75758;SDS011;64371;47.566;19.086;2023-02-04T06:57:25;1.13;;;0.23;;
75758;SDS011;64371;47.566;19.086;2023-02-04T07:00:36;0.35;;;0.25;;
75758;SDS011;64371;47.566;19.086;2023-02-04T07:03:40;0.60;;;0.20;;
75758;SDS011;64371;47.566;19.086;2023-02-04T07:06:48;0.88;;;0.32;;
75758;SDS011;64371;47.566;19.086;2023-02-04T07:10:06;1.50;;;0.33;;
75758;SDS011;64371;47.566;19.086;2023-02-04T07:13:21;0.90;;;0.40;;
75758;SDS011;64371;47.566;19.086;2023-02-04T07:16:24;0.45;;;0.10;;
75758;SDS011;64371;47.566;19.086;2023-02-04T07:19:26;2.05;;;0.50;;
75758;SDS011;64371;47.566;19.086;2023-02-04T07:22:31;1.00;;;0.40;;
75758;SDS011;64371;47.566;19.086;2023-02-04T07:25:42;1.40;;;0.60;;
75758;SDS011;64371;47.566;19.086;2023-02-04T07:28:45;1.70;;;0.80;;
75758;SDS011;64371;47.566;19.086;2023-02-04T07:31:51;2.20;;;0.95;;
75758;SDS011;64371;47.566;19.086;2023-02-04T07:34:58;2.28;;;0.93;;
75758;SDS011;64371;47.566;19.086;2023-02-04T07:38:08;1.35;;;0.85;;
75758;SDS011;64371;47.566;19.086;2023-02-04T07:41:13;2.73;;;1.17;;
75758;SDS011;64371;47.566;19.086;2023-02-04T07:44:21;2.40;;;1.13;;
75758;SDS011;64371;47.566;19.086;2023-02-04T07:47:23;2.45;;;1.45;;
75758;SDS011;64371;47.566;19.086;2023-02-04T07:50:40;3.55;;;1.65;;
75758;SDS011;64371;47.566;19.086;2023-02-04T07:53:57;3.10;;;2.00;;
75758;SDS011;64371;47.566;19.086;2023-02-04T07:56:59;3.17;;;1.90;;
75758;SDS011;64371;47.566;19.086;2023-02-04T08:00:04;3.27;;;1.87;;
75758;SDS011;64371;47.566;19.086;2023-02-04T08:03:17;3.00;;;1.75;;
75758;SDS011;64371;47.566;19.086;2023-02-04T08:06:26;2.72;;;1.60;;
75758;SDS011;64371;47.566;19.086;2023-02-04T08:09:33;3.47;;;2.00;;
75758;SDS011;64371;47.566;19.086;2023-02-04T08:12:44;4.70;;;2.90;;
75758;SDS011;64371;47.566;19.086;2023-02-04T08:15:59;5.37;;;2.60;;
75758;SDS011;64371;47.566;19.086;2023-02-04T08:19:06;4.80;;;2.63;;
75758;SDS011;64371;47.566;19.086;2023-02-04T08:22:11;4.80;;;3.05;;
75758;SDS011;64371;47.566;19.086;2023-02-04T08:25:29;4.45;;;2.92;;
75758;SDS011;64371;47.566;19.086;2023-02-04T08:28:32;5.93;;;2.47;;
75758;SDS011;64371;47.566;19.086;2023-02-04T08:31:43;4.57;;;2.80;;
75758;SDS011;64371;47.566;19.086;2023-02-04T08:34:48;3.92;;;2.38;;
75758;SDS011;64371;47.566;19.086;2023-02-04T08:37:53;4.65;;;2.50;;
75758;SDS011;64371;47.566;19.086;2023-02-04T08:40:56;5.15;;;2.55;;
75758;SDS011;64371;47.566;19.086;2023-02-04T08:44:01;4.60;;;2.17;;
75758;SDS011;64371;47.566;19.086;2023-02-04T08:47:15;3.87;;;2.23;;
75758;SDS011;64371;47.566;19.086;2023-02-04T08:50:25;6.22;;;2.95;;
75758;SDS011;64371;47.566;19.086;2023-02-04T08:53:33;6.03;;;2.90;;
75758;SDS011;64371;47.566;19.086;2023-02-04T08:56:46;3.83;;;2.22;;
75758;SDS011;64371;47.566;19.086;2023-02-04T08:59:56;4.53;;;2.27;;
75758;SDS011;64371;47.566;19.086;2023-02-04T09:03:01;3.30;;;2.10;;
75758;SDS011;64371;47.566;19.086;2023-02-04T09:06:06;3.10;;;2.00;;
75758;SDS011;64371;47.566;19.086;2023-02-04T09:09:12;4.22;;;1.90;;
75758;SDS011;64371;47.566;19.086;2023-02-04T09:12:23;3.53;;;1.80;;
75758;SDS011;64371;47.566;19.086;2023-02-04T09:15:29;2.95;;;1.52;;
75758;SDS011;64371;47.566;19.086;2023-02-04T09:18:34;2.37;;;1.27;;
75758;SDS011;64371;47.566;19.086;2023-02-04T09:21:44;2.67;;;1.20;;
75758;SDS011;64371;47.566;19.086;2023-02-04T09:24:46;2.42;;;1.52;;
75758;SDS011;64371;47.566;19.086;2023-02-04T09:27:54;2.47;;;1.13;;
75758;SDS011;64371;47.566;19.086;2023-02-04T09:31:11;2.80;;;1.30;;
75758;SDS011;64371;47.566;19.086;2023-02-04T09:34:13;3.40;;;1.77;;
75758;SDS011;64371;47.566;19.086;2023-02-04T09:37:29;2.17;;;1.02;;
75758;SDS011;64371;47.566;19.086;2023-02-04T09:40:35;2.38;;;1.40;;
75758;SDS011;64371;47.566;19.086;2023-02-04T09:43:50;3.25;;;1.15;;
75758;SDS011;64371;47.566;19.086;2023-02-04T09:46:55;2.57;;;0.90;;
75758;SDS011;64371;47.566;19.086;2023-02-04T09:49:59;2.40;;;1.10;;
75758;SDS011;64371;47.566;19.086;2023-02-04T09:53:05;1.60;;;0.70;;
75758;SDS011;64371;47.566;19.086;2023-02-04T09:56:19;3.35;;;1.00;;
75758;SDS011;64371;47.566;19.086;2023-02-04T09:59:25;1.50;;;0.82;;
75758;SDS011;64371;47.566;19.086;2023-02-04T10:02:34;2.00;;;0.70;;
75758;SDS011;64371;47.566;19.086;2023-02-04T10:05:36;1.27;;;0.70;;
75758;SDS011;64371;47.566;19.086;2023-02-04T10:08:40;2.00;;;1.00;;
75758;SDS011;64371;47.566;19.086;2023-02-04T10:11:52;1.85;;;0.60;;
75758;SDS011;64371;47.566;19.086;2023-02-04T10:14:54;0.90;;;0.40;;
75758;SDS011;64371;47.566;19.086;2023-02-04T10:18:02;0.73;;;0.40;;
75758;SDS011;64371;47.566;19.086;2023-02-04T10:21:26;1.40;;;0.40;;
75758;SDS011;64371;47.566;19.086;2023-02-04T10:24:29;1.85;;;0.57;;
75758;SDS011;64371;47.566;19.086;2023-02-04T10:27:45;1.00;;;0.47;;
75758;SDS011;64371;47.566;19.086;2023-02-04T10:30:57;1.80;;;0.40;;
75758;SDS011;64371;47.566;19.086;2023-02-04T10:37:21;0.93;;;0.53;;
75758;SDS011;64371;47.566;19.086;2023-02-04T10:40:27;2.35;;;0.63;;
75758;SDS011;64371;47.566;19.086;2023-02-04T10:43:36;1.48;;;0.60;;
75758;SDS011;64371;47.566;19.086;2023-02-04T10:46:39;1.45;;;0.68;;
75758;SDS011;64371;47.566;19.086;2023-02-04T10:53:19;1.47;;;0.50;;
75758;SDS011;64371;47.566;19.086;2023-02-04T10:57:03;0.98;;;0.45;;
75758;SDS011;64371;47.566;19.086;2023-02-04T11:00:20;0.90;;;0.35;;
75758;SDS011;64371;47.566;19.086;2023-02-04T11:03:41;1.65;;;0.80;;
75758;SDS011;64371;47.566;19.086;2023-02-04T11:06:53;1.05;;;0.50;;
75758;SDS011;64371;47.566;19.086;2023-02-04T11:10:00;2.27;;;0.47;;
75758;SDS011;64371;47.566;19.086;2023-02-04T11:13:19;1.35;;;0.70;;
75758;SDS011;64371;47.566;19.086;2023-02-04T11:16:30;1.67;;;0.50;;
75758;SDS011;64371;47.566;19.086;2023-02-04T11:19:50;1.65;;;0.57;;
75758;SDS011;64371;47.566;19.086;2023-02-04T11:23:12;1.00;;;0.50;;
75758;SDS011;64371;47.566;19.086;2023-02-04T11:26:34;0.90;;;0.67;;
75758;SDS011;64371;47.566;19.086;2023-02-04T11:29:45;0.73;;;0.40;;
75758;SDS011;64371;47.566;19.086;2023-02-04T11:33:02;0.60;;;0.30;;
75758;SDS011;64371;47.566;19.086;2023-02-04T11:36:27;0.75;;;0.40;;
75758;SDS011;64371;47.566;19.086;2023-02-04T11:39:35;2.07;;;0.43;;
75758;SDS011;64371;47.566;19.086;2023-02-04T11:42:45;1.20;;;0.57;;
75758;SDS011;64371;47.566;19.086;2023-02-04T11:46:12;0.70;;;0.40;;
75758;SDS011;64371;47.566;19.086;2023-02-04T11:49:20;1.83;;;0.70;;
75758;SDS011;64371;47.566;19.086;2023-02-04T11:52:34;1.40;;;0.60;;
75758;SDS011;64371;47.566;19.086;2023-02-04T11:55:43;1.40;;;0.60;;
75758;SDS011;64371;47.566;19.086;2023-02-04T11:59:00;0.90;;;0.40;;
75758;SDS011;64371;47.566;19.086;2023-02-04T12:02:03;1.10;;;0.40;;
75758;SDS011;64371;47.566;19.086;2023-02-04T12:08:50;2.65;;;0.63;;
75758;SDS011;64371;47.566;19.086;2023-02-04T12:11:59;0.85;;;0.25;;
75758;SDS011;64371;47.566;19.086;2023-02-04T12:15:12;0.90;;;0.30;;
75758;SDS011;64371;47.566;19.086;2023-02-04T12:18:33;1.98;;;0.20;;
75758;SDS011;64371;47.566;19.086;2023-02-04T12:21:36;2.15;;;0.40;;
75758;SDS011;64371;47.566;19.086;2023-02-04T12:24:44;0.98;;;0.38;;
75758;SDS011;64371;47.566;19.086;2023-02-04T12:27:57;1.92;;;0.40;;
75758;SDS011;64371;47.566;19.086;2023-02-04T12:31:04;1.83;;;0.87;;
75758;SDS011;64371;47.566;19.086;2023-02-04T12:34:10;0.98;;;0.32;;
75758;SDS011;64371;47.566;19.086;2023-02-04T12:37:22;0.93;;;0.40;;
75758;SDS011;64371;47.566;19.086;2023-02-04T12:40:27;1.20;;;0.40;;
75758;SDS011;64371;47.566;19.086;2023-02-04T12:43:42;0.97;;;0.40;;
75758;SDS011;64371;47.566;19.086;2023-02-04T12:46:47;0.83;;;0.40;;
75758;SDS011;64371;47.566;19.086;2023-02-04T12:49:57;1.10;;;0.68;;
75758;SDS011;64371;47.566;19.086;2023-02-04T12:53:10;2.38;;;0.88;;
75758;SDS011;64371;47.566;19.086;2023-02-04T12:56:15;2.60;;;0.85;;
75758;SDS011;64371;47.566;19.086;2023-02-04T12:59:26;2.03;;;1.03;;
75758;SDS011;64371;47.566;19.086;2023-02-04T13:02:30;1.57;;;0.73;;
75758;SDS011;64371;47.566;19.086;2023-02-04T13:05:32;2.88;;;0.85;;
75758;SDS011;64371;47.566;19.086;2023-02-04T13:08:45;1.48;;;0.80;;
75758;SDS011;64371;47.566;19.086;2023-02-04T13:11:54;1.77;;;0.80;;
75758;SDS011;64371;47.566;19.086;2023-02-04T13:14:56;1.67;;;0.70;;
75758;SDS011;64371;47.566;19.086;2023-02-04T13:18:04;1.67;;;0.60;;
75758;SDS011;64371;47.566;19.086;2023-02-04T13:21:09;1.77;;;1.02;;
75758;SDS011;64371;47.566;19.086;2023-02-04T13:24:23;2.20;;;1.10;;
75758;SDS011;64371;47.566;19.086;2023-02-04T13:27:28;2.88;;;0.80;;
75758;SDS011;64371;47.566;19.086;2023-02-04T13:30:41;1.53;;;0.70;;
75758;SDS011;64371;47.566;19.086;2023-02-04T13:33:47;1.60;;;0.70;;
75758;SDS011;64371;47.566;19.086;2023-02-04T13:36:57;1.83;;;0.70;;
75758;SDS011;64371;47.566;19.086;2023-02-04T13:40:02;1.90;;;1.05;;
75758;SDS011;64371;47.566;19.086;2023-02-04T13:43:13;3.15;;;0.98;;
75758;SDS011;64371;47.566;19.086;2023-02-04T13:46:18;2.60;;;1.30;;
75758;SDS011;64371;47.566;19.086;2023-02-04T13:49:25;2.70;;;1.27;;
75758;SDS011;64371;47.566;19.086;2023-02-04T13:52:29;1.98;;;1.00;;
75758;SDS011;64371;47.566;19.086;2023-02-04T13:55:37;1.52;;;1.00;;
75758;SDS011;64371;47.566;19.086;2023-02-04T13:58:40;3.38;;;0.70;;
75758;SDS011;64371;47.566;19.086;2023-02-04T14:01:46;2.00;;;0.90;;
75758;SDS011;64371;47.566;19.086;2023-02-04T14:04:49;2.23;;;0.87;;
75758;SDS011;64371;47.566;19.086;2023-02-04T14:07:59;2.58;;;1.13;;
75758;SDS011;64371;47.566;19.086;2023-02-04T14:11:18;2.47;;;0.90;;
75758;SDS011;64371;47.566;19.086;2023-02-04T14:14:27;2.33;;;0.93;;
75758;SDS011;64371;47.566;19.086;2023-02-04T14:17:40;3.93;;;0.97;;
75758;SDS011;64371;47.566;19.086;2023-02-04T14:20:46;3.20;;;1.27;;
75758;SDS011;64371;47.566;19.086;2023-02-04T14:23:53;3.33;;;1.25;;
75758;SDS011;64371;47.566;19.086;2023-02-04T14:26:58;3.58;;;1.30;;
75758;SDS011;64371;47.566;19.086;2023-02-04T14:30:02;4.78;;;1.55;;
75758;SDS011;64371;47.566;19.086;2023-02-04T14:33:14;4.43;;;2.27;;
75758;SDS011;64371;47.566;19.086;2023-02-04T14:36:26;4.00;;;1.73;;
75758;SDS011;64371;47.566;19.086;2023-02-04T14:39:32;3.20;;;1.70;;
75758;SDS011;64371;47.566;19.086;2023-02-04T14:42:34;3.53;;;1.60;;
75758;SDS011;64371;47.566;19.086;2023-02-04T14:45:43;31.13;;;10.40;;
75758;SDS011;64371;47.566;19.086;2023-02-04T14:48:57;8.00;;;4.20;;
75758;SDS011;64371;47.566;19.086;2023-02-04T14:52:02;4.57;;;2.40;;
75758;SDS011;64371;47.566;19.086;2023-02-04T14:55:05;6.57;;;3.00;;
75758;SDS011;64371;47.566;19.086;2023-02-04T14:58:16;9.65;;;5.47;;
75758;SDS011;64371;47.566;19.086;2023-02-04T15:01:23;10.57;;;5.70;;
75758;SDS011;64371;47.566;19.086;2023-02-04T15:04:37;10.73;;;5.47;;
75758;SDS011;64371;47.566;19.086;2023-02-04T15:07:39;5.20;;;2.90;;
75758;SDS011;64371;47.566;19.086;2023-02-04T15:10:48;9.23;;;4.68;;
75758;SDS011;64371;47.566;19.086;2023-02-04T15:13:55;4.30;;;2.47;;
75758;SDS011;64371;47.566;19.086;2023-02-04T15:17:03;4.60;;;2.53;;
75758;SDS011;64371;47.566;19.086;2023-02-04T15:20:11;3.63;;;1.90;;
75758;SDS011;64371;47.566;19.086;2023-02-04T15:23:14;3.20;;;1.27;;
75758;SDS011;64371;47.566;19.086;2023-02-04T15:26:26;4.50;;;2.13;;
75758;SDS011;64371;47.566;19.086;2023-02-04T15:29:41;3.30;;;1.75;;
75758;SDS011;64371;47.566;19.086;2023-02-04T15:32:48;3.03;;;1.30;;
75758;SDS011;64371;47.566;19.086;2023-02-04T15:35:53;5.40;;;1.20;;
75758;SDS011;64371;47.566;19.086;2023-02-04T15:38:55;2.87;;;0.97;;
75758;SDS011;64371;47.566;19.086;2023-02-04T15:42:06;2.45;;;1.08;;
75758;SDS011;64371;47.566;19.086;2023-02-04T15:45:09;2.92;;;1.30;;
75758;SDS011;64371;47.566;19.086;2023-02-04T15:48:17;2.85;;;0.93;;
75758;SDS011;64371;47.566;19.086;2023-02-04T15:51:24;2.30;;;1.00;;
75758;SDS011;64371;47.566;19.086;2023-02-04T15:54:39;1.33;;;0.60;;
75758;SDS011;64371;47.566;19.086;2023-02-04T15:57:51;1.77;;;0.90;;
75758;SDS011;64371;47.566;19.086;2023-02-04T16:01:02;1.92;;;0.82;;
75758;SDS011;64371;47.566;19.086;2023-02-04T16:04:11;2.60;;;0.90;;
75758;SDS011;64371;47.566;19.086;2023-02-04T16:07:28;2.30;;;0.80;;
75758;SDS011;64371;47.566;19.086;2023-02-04T16:10:36;3.37;;;1.30;;
75758;SDS011;64371;47.566;19.086;2023-02-04T16:13:47;3.10;;;1.42;;
75758;SDS011;64371;47.566;19.086;2023-02-04T16:16:49;9.73;;;4.18;;
75758;SDS011;64371;47.566;19.086;2023-02-04T16:19:57;6.82;;;3.42;;
75758;SDS011;64371;47.566;19.086;2023-02-04T16:23:08;2.40;;;1.30;;
75758;SDS011;64371;47.566;19.086;2023-02-04T16:26:19;3.77;;;1.43;;
75758;SDS011;64371;47.566;19.086;2023-02-04T16:29:21;4.38;;;1.65;;
75758;SDS011;64371;47.566;19.086;2023-02-04T16:32:32;29.73;;;11.38;;
75758;SDS011;64371;47.566;19.086;2023-02-04T16:35:55;28.00;;;10.43;;
75758;SDS011;64371;47.566;19.086;2023-02-04T16:39:11;14.63;;;5.93;;
75758;SDS011;64371;47.566;19.086;2023-02-04T16:42:25;3.40;;;1.70;;
75758;SDS011;64371;47.566;19.086;2023-02-04T16:45:40;7.20;;;3.75;;
75758;SDS011;64371;47.566;19.086;2023-02-04T16:48:44;12.63;;;6.30;;
75758;SDS011;64371;47.566;19.086;2023-02-04T16:51:47;12.15;;;5.35;;
75758;SDS011;64371;47.566;19.086;2023-02-04T16:54:52;15.40;;;5.50;;
75758;SDS011;64371;47.566;19.086;2023-02-04T16:57:57;18.23;;;6.57;;
75758;SDS011;64371;47.566;19.086;2023-02-04T17:01:04;7.95;;;4.13;;
75758;SDS011;64371;47.566;19.086;2023-02-04T17:04:06;8.18;;;4.78;;
75758;SDS011;64371;47.566;19.086;2023-02-04T17:07:14;2.80;;;1.42;;
75758;SDS011;64371;47.566;19.086;2023-02-04T17:10:22;2.77;;;1.17;;
75758;SDS011;64371;47.566;19.086;2023-02-04T17:13:49;1.90;;;0.80;;
75758;SDS011;64371;47.566;19.086;2023-02-04T17:16:56;6.30;;;1.95;;
75758;SDS011;64371;47.566;19.086;2023-02-04T17:19:58;2.92;;;1.42;;
75758;SDS011;64371;47.566;19.086;2023-02-04T17:23:10;4.13;;;1.35;;
75758;SDS011;64371;47.566;19.086;2023-02-04T17:26:14;3.80;;;1.20;;
75758;SDS011;64371;47.566;19.086;2023-02-04T17:29:17;3.57;;;1.20;;
75758;SDS011;64371;47.566;19.086;2023-02-04T17:32:22;4.35;;;2.13;;
75758;SDS011;64371;47.566;19.086;2023-02-04T17:35:29;3.75;;;1.15;;
75758;SDS011;64371;47.566;19.086;2023-02-04T17:38:40;2.97;;;1.17;;
75758;SDS011;64371;47.566;19.086;2023-02-04T17:41:46;2.23;;;0.60;;
75758;SDS011;64371;47.566;19.086;2023-02-04T17:44:51;3.27;;;1.00;;
75758;SDS011;64371;47.566;19.086;2023-02-04T17:47:57;4.53;;;1.30;;
75758;SDS011;64371;47.566;19.086;2023-02-04T17:50:59;4.00;;;1.55;;
75758;SDS011;64371;47.566;19.086;2023-02-04T17:54:05;2.83;;;0.68;;
75758;SDS011;64371;47.566;19.086;2023-02-04T17:57:19;2.50;;;1.10;;
75758;SDS011;64371;47.566;19.086;2023-02-04T18:00:24;2.00;;;0.73;;
75758;SDS011;64371;47.566;19.086;2023-02-04T18:03:32;3.88;;;1.13;;
75758;SDS011;64371;47.566;19.086;2023-02-04T18:06:45;3.75;;;1.05;;
75758;SDS011;64371;47.566;19.086;2023-02-04T18:10:00;3.22;;;1.13;;
75758;SDS011;64371;47.566;19.086;2023-02-04T18:13:21;2.07;;;0.80;;
75758;SDS011;64371;47.566;19.086;2023-02-04T18:16:33;2.83;;;0.93;;
75758;SDS011;64371;47.566;19.086;2023-02-04T18:19:41;2.13;;;1.05;;
75758;SDS011;64371;47.566;19.086;2023-02-04T18:22:58;3.08;;;1.15;;
75758;SDS011;64371;47.566;19.086;2023-02-04T18:26:24;3.45;;;1.20;;
75758;SDS011;64371;47.566;19.086;2023-02-04T18:29:36;5.63;;;1.70;;
75758;SDS011;64371;47.566;19.086;2023-02-04T18:32:50;3.10;;;1.07;;
75758;SDS011;64371;47.566;19.086;2023-02-04T18:35:59;3.15;;;1.10;;
75758;SDS011;64371;47.566;19.086;2023-02-04T18:39:29;2.80;;;0.88;;
75758;SDS011;64371;47.566;19.086;2023-02-04T18:42:37;3.05;;;1.10;;
75758;SDS011;64371;47.566;19.086;2023-02-04T18:45:45;3.43;;;1.33;;
75758;SDS011;64371;47.566;19.086;2023-02-04T18:48:58;4.80;;;0.93;;
75758;SDS011;64371;47.566;19.086;2023-02-04T18:52:12;4.82;;;1.02;;